Bauang Weathercam more information Bauang Weathercam


Thunder radar more information blitzortung!


Rain radar more information rain snow radar


Visit other webcamsites:

Livecam

Youtube live stream



Nearby METAR Reports

   
RPLC - Angeles/Pampanga, Philippines
Distance from station: S 165 km
Updated: 22-01-2021 11:00
Mostly Cloudy  
Mostly Cloudy  
   Wind: South 2.1 m/s
Wind: South 2.1 m/s
Temperature: 28°C
Heat Index: 32°C
Dew Point: 24°C
Humidity: 79%
Barometer: 1011 hPa
Clouds: Mostly Cloudy
Visibility: 7 km
Cloud details: Partly Cloudy 609.6 m,
Mostly Cloudy 3048 m
RPLC 220300Z 18004KT 7000 SCT020 BKN100 28/24 Q1011 NOSIG RMK A2985
RPLI - Laoag Intl(Ph-Ar, Philippines
Distance from station: N 172 km
Updated: 22-01-2021 12:00
Mostly Cloudy  
Mostly Cloudy  
   Wind: West 2.6 m/s
Wind: West 2.6 m/s
Temperature: 28°C
Heat Index: 33°C
Dew Point: 25°C
Humidity: 84%
Barometer: 1010 hPa
Clouds: Mostly Cloudy
Visibility: More than 10 km
Cloud details: Few Clouds 518.2 m,
Partly Cloudy 548.6 m,
Mostly Cloudy 2438.4 m
RPLI 220400Z 26005KT 210V310 9999 FEW017CB SCT018 BKN080 28/25 Q1010 NOSIG RMK A2983 CB NW
RPLB - Olongapo/Subic, Philippines
Distance from station: S 203 km
Updated: 22-01-2021 12:00
Mostly Cloudy  
Mostly Cloudy  
   Wind: SW 1.5 m/s
Wind: SW 1.5 m/s
Temperature: 28°C
Heat Index: 32°C
Dew Point: 24°C
Humidity: 79%
Barometer: 1011 hPa
Clouds: Mostly Cloudy
Visibility: More than 10 km
Cloud details: Partly Cloudy 609.6 m,
Mostly Cloudy 2438.4 m
RPLB 220400Z 23003KT 210V280 9999 SCT020 BKN080 28/24 Q1011 RMK A2985
RPLL - Ninoy Aquino Int, Philippines
Distance from station: SSE 246 km
Updated: 22-01-2021 12:00
Light Rain, Mostly Cloudy  
Light Rain, Mostly Cloudy  
   Wind: SSE 2.1 m/s
Wind: SSE 2.1 m/s
Temperature: 28°C
Heat Index: 32°C
Dew Point: 24°C
Humidity: 79%
Barometer: 1010 hPa
Clouds: Mostly Cloudy
Visibility: More than 10 km
Cloud details: Partly Cloudy 670.6 m,
Mostly Cloudy 2743.2 m
RPLL 220400Z 16004KT 070V220 9999 -RA SCT022 BKN090 28/24 Q1010 NOSIG RMK A2983
RPMR - Romblon/Tablas I, Philippines
Distance from station: SSE 498 km
Updated: 22-01-2021 12:00
Mostly Cloudy  
Mostly Cloudy  
   Wind: ENE 3.1 m/s
Wind: ENE 3.1 m/s
Temperature: 30°C
Heat Index: 35°C
Dew Point: 24°C
Humidity: 70%
Barometer: 1010 hPa
Clouds: Mostly Cloudy
Visibility: 9 km
Cloud details: Few Clouds 548.6 m,
Mostly Cloudy 2438.4 m
RPMR 220400Z 06006KT 9000 FEW018 BKN080 30/24 Q1010 RMK A2983
RPVP - Puerto Princesa, Philippines
Distance from station: SSW 778 km
Updated: 22-01-2021 12:00
Mostly Cloudy  
Mostly Cloudy  
   Wind: ESE 3.1 m/s
Wind: ESE 3.1 m/s
Temperature: 28°C
Heat Index: 33°C
Dew Point: 25°C
Humidity: 84%
Barometer: 1010 hPa
Clouds: Mostly Cloudy
Visibility: More than 10 km
Cloud details: Partly Cloudy 579.1 m,
Mostly Cloudy 2438.4 m,
Mostly Cloudy 7315.2 m
RPVP 220400Z 12006KT 9999 SCT019 BKN080 BKN240 28/25 Q1010 RMK A2983
RPVM - Mactan-Cebu, Philippines
Distance from station: SSE 800 km
Updated: 22-01-2021 12:00
Mostly Cloudy  
Mostly Cloudy  
   Wind: NNW 3.6 m/s
Wind: NNW 3.6 m/s
Temperature: 28°C
Heat Index: 31°C
Dew Point: 23°C
Humidity: 74%
Barometer: 1011 hPa
Clouds: Mostly Cloudy
Visibility: More than 10 km
Cloud details: Few Clouds 548.6 m,
Mostly Cloudy 3048 m
RPVM 220400Z 33007KT 9999 FEW018CB BKN100 28/23 Q1011 RMK A2985 CB SE-SW/W-N
RPMZ - Zamboanga (civ/A, Philippines
Distance from station: S 1090 km
Updated: 22-01-2021 12:00
Overcast  
Overcast  
   Wind: East 3.1 m/s
Wind: East 3.1 m/s
Temperature: 27°C
Heat Index: 31°C
Dew Point: 25°C
Humidity: 89%
Barometer: 1011 hPa
Clouds: Overcast
Visibility: More than 10 km
Cloud details: Partly Cloudy 487.7 m,
Overcast 2743.2 m
RPMZ 220400Z 09006KT 9999 SCT016CB OVC090 27/25 Q1011 RMK A2985 CB NW-NE SE-SW OHD
RPMD - Davao/Francisco, Philippines
Distance from station: SSE 1198 km
Updated: 22-01-2021 12:00
Mostly Cloudy  
Mostly Cloudy  
   Wind: varies 1 m/s
Wind: varies 1 m/s
Temperature: 29°C
Heat Index: 34°C
Dew Point: 25°C
Humidity: 79%
Barometer: 1010 hPa
Clouds: Mostly Cloudy
Visibility: More than 10 km
Cloud details: Few Clouds 487.7 m,
Partly Cloudy 2743.2 m,
Mostly Cloudy 7924.8 m
RPMD 220400Z VRB02KT 9999 FEW016TCU SCT090 BKN260 29/25 Q1010 RMK A2983 TCU W

Script developed by  Saratoga-weather.org Adapted for the template by  Weerstation Leuven

You find our weather info also at:

Ambient Weather

WeatherCloud

Philippine Atmospheric, Geophysical and Astronomical Services Administration